Time;durP1;ratioP1;P1;durP2;ratioP2;P2;SDS_P1;SDS_P2;PMS_P1;PMS_P2;Temp;Humidity;BMP_temperature;BMP_pressure;BME280_temperature;BME280_humidity;BME280_pressure;Samples;Min_cycle;Max_cycle;Signal;HPM_P1;HPM_P2
2022/09/18 00:02:21;;;;;;;3.85;2.70;;;16.20;92.20;;;;;;4936687;29;20076;-61
2022/09/18 00:04:47;;;;;;;3.35;2.70;;;16.10;92.30;;;;;;4939139;29;20032;-62
2022/09/18 00:07:12;;;;;;;3.00;2.55;;;16.10;92.10;;;;;;4928714;29;20035;-62
2022/09/18 00:09:38;;;;;;;3.60;2.70;;;16.10;92.10;;;;;;4939206;29;20048;-62
2022/09/18 00:12:04;;;;;;;2.80;2.47;;;16.10;92.30;;;;;;4935321;29;20036;-63
2022/09/18 00:14:29;;;;;;;2.95;2.65;;;16.10;92.20;;;;;;4938901;29;20036;-62
2022/09/18 00:16:55;;;;;;;3.65;2.70;;;16.10;92.20;;;;;;4934854;29;20032;-62
2022/09/18 00:19:21;;;;;;;2.97;2.67;;;16.10;92.30;;;;;;4934462;29;20028;-63
2022/09/18 00:21:49;;;;;;;4.18;3.20;;;16.10;92.40;;;;;;4916661;29;20052;-62
2022/09/18 00:24:18;;;;;;;3.28;2.53;;;16.00;92.40;;;;;;4934112;29;20111;-62
2022/09/18 00:26:45;;;;;;;3.05;2.50;;;16.10;92.50;;;;;;4943711;29;20083;-63
2022/09/18 00:29:11;;;;;;;4.32;2.67;;;16.00;92.50;;;;;;4943318;29;20131;-64
2022/09/18 00:31:37;;;;;;;4.32;2.72;;;16.10;92.50;;;;;;4928464;29;20024;-63
2022/09/18 00:34:07;;;;;;;4.07;2.90;;;16.10;92.50;;;;;;4929412;29;20047;-63
2022/09/18 00:36:34;;;;;;;2.83;2.55;;;16.10;92.50;;;;;;4931937;29;20064;-62
2022/09/18 00:39:00;;;;;;;3.05;2.70;;;16.10;92.40;;;;;;4937196;29;20044;-63
2022/09/18 00:41:34;;;;;;;2.90;2.60;;;16.10;92.40;;;;;;4931561;29;20028;-63
2022/09/18 00:44:30;;;;;;;3.85;2.85;;;16.10;92.50;;;;;;4944434;29;20024;-63
2022/09/18 00:47:11;;;;;;;3.10;2.80;;;16.20;92.30;;;;;;4918228;29;20028;-62
2022/09/18 00:49:46;;;;;;;3.92;3.00;;;16.10;92.30;;;;;;4930151;29;20539;-63
2022/09/18 00:52:13;;;;;;;3.05;2.60;;;16.10;92.20;;;;;;4927896;29;20087;-63
2022/09/18 00:54:43;;;;;;;2.78;2.58;;;16.20;92.30;;;;;;4925408;29;20035;-62
2022/09/18 00:57:13;;;;;;;2.95;2.40;;;16.20;92.20;;;;;;4925146;29;20024;-62
2022/09/18 00:59:42;;;;;;;3.67;2.90;;;16.20;92.20;;;;;;4929776;29;20024;-62
2022/09/18 01:02:08;;;;;;;3.78;2.92;;;16.20;92.20;;;;;;4930122;29;20025;-63
2022/09/18 01:04:34;;;;;;;3.58;3.00;;;16.20;92.10;;;;;;4929446;29;20441;-62
2022/09/18 01:07:05;;;;;;;4.55;2.95;;;16.20;92.10;;;;;;4934477;29;20032;-63
2022/09/18 01:09:44;;;;;;;4.13;3.05;;;16.20;92.00;;;;;;4947375;29;20038;-62
2022/09/18 01:12:27;;;;;;;4.90;3.38;;;16.20;92.00;;;;;;4944292;29;20499;-63
2022/09/18 01:15:22;;;;;;;3.65;3.03;;;16.20;92.10;;;;;;4922069;29;20024;-63
2022/09/18 01:18:02;;;;;;;4.28;2.85;;;16.20;92.00;;;;;;4939802;29;20480;-63
2022/09/18 01:20:50;;;;;;;3.42;2.88;;;16.20;92.00;;;;;;4916012;29;20035;-62
2022/09/18 01:23:27;;;;;;;4.93;3.40;;;16.20;91.90;;;;;;4931500;29;20023;-62
2022/09/18 01:26:18;;;;;;;6.47;3.75;;;16.20;92.00;;;;;;4921932;29;20436;-62
2022/09/18 01:28:51;;;;;;;4.68;3.03;;;16.10;91.90;;;;;;4928616;29;20064;-62
2022/09/18 01:31:21;;;;;;;4.50;3.28;;;16.10;92.10;;;;;;4921925;29;20035;-63
2022/09/18 01:34:06;;;;;;;5.13;2.90;;;16.20;92.20;;;;;;4927915;29;20036;-62
2022/09/18 01:36:38;;;;;;;5.88;3.45;;;16.10;92.20;;;;;;4943912;29;20024;-62
2022/09/18 01:39:12;;;;;;;5.93;3.53;;;16.10;92.30;;;;;;4935261;29;20028;-62
2022/09/18 01:41:40;;;;;;;5.93;3.75;;;16.20;92.20;;;;;;4920561;29;20032;-62
2022/09/18 01:44:15;;;;;;;5.07;3.47;;;16.10;92.20;;;;;;4935763;29;20024;-62
2022/09/18 01:46:43;;;;;;;4.88;3.60;;;16.10;92.10;;;;;;4940940;29;20038;-63
2022/09/18 01:49:16;;;;;;;5.50;3.45;;;16.10;92.30;;;;;;4925791;29;20060;-62
2022/09/18 01:51:53;;;;;;;4.97;3.80;;;16.10;92.30;;;;;;4944783;29;20066;-62
2022/09/18 01:54:24;;;;;;;6.93;3.88;;;16.10;92.30;;;;;;4931534;29;20051;-62
2022/09/18 01:56:55;;;;;;;6.03;4.00;;;16.10;92.40;;;;;;4943579;29;20055;-63
2022/09/18 01:59:28;;;;;;;5.45;3.35;;;16.10;92.40;;;;;;4936980;29;20060;-63
2022/09/18 02:01:58;;;;;;;4.68;3.47;;;16.10;92.40;;;;;;4941127;29;20040;-63
2022/09/18 02:04:28;;;;;;;6.32;4.30;;;16.10;92.40;;;;;;4946285;29;20090;-63
2022/09/18 02:07:10;;;;;;;4.93;3.25;;;16.10;92.50;;;;;;4932725;29;20091;-63
2022/09/18 02:09:36;;;;;;;4.35;3.30;;;16.10;92.50;;;;;;4937244;29;20037;-63
2022/09/18 02:12:04;;;;;;;4.43;3.33;;;16.10;92.60;;;;;;4929979;29;20083;-63
2022/09/18 02:14:39;;;;;;;4.50;3.15;;;16.10;92.60;;;;;;4938946;29;20059;-63
2022/09/18 02:17:12;;;;;;;5.93;4.05;;;16.10;92.50;;;;;;4943766;29;20020;-64
2022/09/18 02:19:44;;;;;;;5.43;3.60;;;16.10;92.60;;;;;;4946723;29;20050;-63
2022/09/18 02:22:15;;;;;;;4.40;3.38;;;16.10;92.60;;;;;;4928151;29;20035;-63
2022/09/18 02:24:44;;;;;;;6.00;3.90;;;16.10;92.60;;;;;;4942163;29;20129;-63
2022/09/18 02:27:12;;;;;;;5.45;3.80;;;16.10;92.60;;;;;;4933226;29;20061;-63
2022/09/18 02:29:40;;;;;;;5.65;3.42;;;16.00;92.70;;;;;;4942406;29;20083;-63
2022/09/18 02:32:05;;;;;;;6.07;3.97;;;16.10;92.80;;;;;;4945660;29;20106;-63
2022/09/18 02:34:32;;;;;;;5.97;4.00;;;16.10;92.90;;;;;;4931342;29;20055;-63
2022/09/18 02:37:19;;;;;;;6.80;4.10;;;16.00;92.80;;;;;;4935027;29;20020;-64
2022/09/18 02:39:51;;;;;;;5.00;3.75;;;16.10;92.80;;;;;;4923932;29;20023;-63
2022/09/18 02:42:35;;;;;;;6.97;3.80;;;16.00;92.80;;;;;;4926534;29;20020;-63
2022/09/18 02:45:34;;;;;;;5.30;3.70;;;16.10;92.80;;;;;;4916249;29;20032;-63
2022/09/18 02:48:37;;;;;;;5.78;3.95;;;16.00;92.70;;;;;;4925976;29;20035;-63
2022/09/18 02:51:30;;;;;;;6.32;3.72;;;16.00;92.80;;;;;;4927303;29;20024;-63
2022/09/18 02:54:05;;;;;;;6.10;3.97;;;16.00;92.90;;;;;;4920999;29;20063;-62
2022/09/18 02:56:56;;;;;;;5.72;3.80;;;16.10;93.00;;;;;;4924721;29;20032;-63
2022/09/18 02:59:30;;;;;;;4.93;3.58;;;16.10;93.00;;;;;;4925833;29;20028;-63
2022/09/18 03:01:57;;;;;;;5.88;4.13;;;16.10;93.10;;;;;;4927934;29;20029;-64
2022/09/18 03:04:25;;;;;;;5.35;3.72;;;16.10;93.10;;;;;;4928042;29;20365;-62
2022/09/18 03:06:51;;;;;;;5.47;3.65;;;16.10;93.20;;;;;;4928480;29;20032;-63
2022/09/18 03:09:17;;;;;;;5.10;3.22;;;16.10;93.20;;;;;;4928239;29;20054;-62
2022/09/18 03:11:43;;;;;;;5.20;3.95;;;16.10;93.20;;;;;;4925231;29;20028;-62
2022/09/18 03:14:09;;;;;;;4.22;3.13;;;16.10;93.20;;;;;;4926778;29;20044;-64
2022/09/18 03:16:35;;;;;;;6.35;4.20;;;16.20;93.20;;;;;;4928419;29;20036;-63
2022/09/18 03:19:01;;;;;;;6.28;4.05;;;16.20;93.20;;;;;;4927122;29;20028;-63
2022/09/18 03:21:27;;;;;;;6.95;4.53;;;16.20;93.20;;;;;;4927045;29;20558;-63
2022/09/18 03:23:52;;;;;;;5.70;4.18;;;16.20;93.20;;;;;;4927091;29;20056;-62
2022/09/18 03:26:18;;;;;;;5.57;4.00;;;16.20;93.30;;;;;;4925846;29;20310;-63
2022/09/18 03:28:44;;;;;;;6.07;4.10;;;16.20;93.30;;;;;;4928896;29;20072;-64
2022/09/18 03:31:10;;;;;;;7.53;4.40;;;16.20;93.40;;;;;;4928777;29;20418;-64
2022/09/18 03:33:36;;;;;;;5.50;4.03;;;16.20;93.30;;;;;;4929946;29;20032;-63
2022/09/18 03:36:04;;;;;;;7.57;4.10;;;16.20;93.30;;;;;;4930430;29;20023;-64
2022/09/18 03:38:30;;;;;;;5.88;4.13;;;16.20;93.30;;;;;;4929928;29;20052;-63
2022/09/18 03:40:56;;;;;;;5.85;4.35;;;16.20;93.30;;;;;;4930965;29;20043;-63
2022/09/18 03:43:22;;;;;;;6.68;4.35;;;16.20;93.40;;;;;;4948522;29;20028;-63
2022/09/18 03:45:48;;;;;;;5.55;4.03;;;16.20;93.40;;;;;;4925703;29;20045;-62
2022/09/18 03:48:14;;;;;;;6.15;4.47;;;16.20;93.50;;;;;;4940123;29;20036;-62
2022/09/18 03:50:39;;;;;;;5.45;3.97;;;16.20;93.50;;;;;;4930389;29;20096;-62
2022/09/18 03:53:07;;;;;;;7.38;4.22;;;16.20;93.60;;;;;;4942533;29;20072;-64
2022/09/18 03:55:34;;;;;;;6.40;4.07;;;16.20;93.60;;;;;;4929972;29;20024;-64
2022/09/18 03:58:00;;;;;;;7.13;4.45;;;16.20;93.60;;;;;;4941226;29;20060;-64
2022/09/18 04:00:26;;;;;;;6.05;4.28;;;16.30;93.70;;;;;;4929835;29;20061;-63
2022/09/18 04:02:51;;;;;;;8.43;4.55;;;16.30;93.70;;;;;;4922159;29;20080;-63
2022/09/18 04:05:17;;;;;;;6.80;4.78;;;16.30;93.70;;;;;;4924074;29;20036;-63
2022/09/18 04:07:43;;;;;;;7.45;4.90;;;16.30;93.70;;;;;;4929024;29;20036;-63
2022/09/18 04:10:08;;;;;;;6.50;4.07;;;16.30;93.70;;;;;;4929188;29;20406;-64
2022/09/18 04:12:34;;;;;;;7.38;4.63;;;16.30;93.70;;;;;;4936919;29;20034;-63
2022/09/18 04:15:00;;;;;;;7.28;4.68;;;16.30;93.60;;;;;;4941626;29;20060;-64
2022/09/18 04:17:25;;;;;;;8.30;5.18;;;16.30;93.60;;;;;;4940206;29;20120;-63
2022/09/18 04:19:51;;;;;;;5.72;4.47;;;16.40;93.60;;;;;;4925080;29;20029;-63
2022/09/18 04:22:17;;;;;;;6.05;4.43;;;16.30;93.60;;;;;;4927973;29;20043;-62
2022/09/18 04:24:44;;;;;;;6.40;4.10;;;16.40;93.60;;;;;;4929527;29;20032;-63
2022/09/18 04:27:10;;;;;;;5.93;4.40;;;16.40;93.90;;;;;;4919203;29;20044;-63
2022/09/18 04:29:35;;;;;;;7.63;5.00;;;16.40;93.70;;;;;;4928943;29;20036;-62
2022/09/18 04:32:01;;;;;;;7.30;5.03;;;16.30;93.60;;;;;;4928380;29;20115;-63
2022/09/18 04:34:27;;;;;;;6.57;4.35;;;16.40;93.70;;;;;;4928483;29;20035;-62
2022/09/18 04:36:53;;;;;;;6.25;4.05;;;16.40;93.80;;;;;;4922775;29;20032;-63
2022/09/18 04:39:18;;;;;;;6.90;4.60;;;16.40;93.80;;;;;;4927529;29;20073;-63
2022/09/18 04:41:47;;;;;;;6.97;4.68;;;16.40;93.90;;;;;;4926299;29;20033;-63
2022/09/18 04:44:12;;;;;;;6.63;4.30;;;16.50;93.90;;;;;;4935982;29;20023;-63
2022/09/18 04:46:38;;;;;;;7.50;5.00;;;16.50;93.90;;;;;;4939828;29;20043;-62
2022/09/18 04:49:04;;;;;;;9.88;5.18;;;16.50;93.90;;;;;;4927669;29;20032;-63
2022/09/18 04:51:29;;;;;;;7.45;4.70;;;16.50;93.80;;;;;;4927481;29;20036;-63
2022/09/18 04:53:55;;;;;;;7.18;4.53;;;16.50;93.80;;;;;;4926396;29;20099;-63
2022/09/18 04:56:21;;;;;;;7.68;5.28;;;16.50;93.70;;;;;;4920584;29;20480;-63
2022/09/18 04:58:46;;;;;;;7.10;4.55;;;16.50;93.50;;;;;;4940275;29;20510;-63
2022/09/18 05:01:12;;;;;;;6.15;3.90;;;16.50;93.60;;;;;;4943399;29;20020;-62
2022/09/18 05:03:38;;;;;;;9.45;5.78;;;16.50;93.90;;;;;;4940335;29;20023;-63
2022/09/18 05:06:04;;;;;;;8.30;5.50;;;16.50;94.00;;;;;;4927470;29;20028;-63
2022/09/18 05:08:31;;;;;;;6.82;4.40;;;16.50;94.00;;;;;;4935904;29;20111;-63
2022/09/18 05:10:57;;;;;;;8.30;5.35;;;16.50;93.90;;;;;;4926208;29;20036;-62
2022/09/18 05:13:22;;;;;;;6.80;4.85;;;16.50;94.00;;;;;;4938707;29;20361;-63
2022/09/18 05:15:52;;;;;;;8.25;5.25;;;16.50;93.90;;;;;;4940061;29;20031;-60
2022/09/18 05:18:18;;;;;;;7.78;4.72;;;16.60;93.90;;;;;;4944981;29;20043;-60
2022/09/18 05:20:43;;;;;;;7.05;4.20;;;16.60;94.00;;;;;;4945504;29;20028;-61
2022/09/18 05:23:09;;;;;;;5.80;4.72;;;16.60;94.10;;;;;;4932309;29;20107;-62
2022/09/18 05:25:35;;;;;;;7.65;4.57;;;16.60;94.10;;;;;;4927410;29;20024;-62
2022/09/18 05:28:02;;;;;;;7.53;4.80;;;16.60;94.20;;;;;;4921865;29;20024;-63
2022/09/18 05:30:29;;;;;;;8.27;5.00;;;16.60;94.20;;;;;;4937477;29;20028;-62
2022/09/18 05:32:58;;;;;;;6.75;4.03;;;16.70;94.20;;;;;;4938642;29;20508;-62
2022/09/18 05:35:25;;;;;;;8.23;5.22;;;16.70;94.20;;;;;;4926547;29;20020;-62
2022/09/18 05:37:53;;;;;;;6.45;4.35;;;16.70;94.10;;;;;;4929679;29;20103;-62
2022/09/18 05:40:20;;;;;;;7.75;4.82;;;16.70;94.10;;;;;;4909659;29;20032;-62
2022/09/18 05:42:46;;;;;;;8.57;5.15;;;16.80;94.10;;;;;;4926690;29;20028;-62
2022/09/18 05:45:13;;;;;;;6.70;4.82;;;16.80;94.10;;;;;;4927604;29;20028;-62
2022/09/18 05:47:39;;;;;;;8.02;5.18;;;16.80;94.10;;;;;;4937050;29;20310;-62
2022/09/18 05:50:06;;;;;;;7.47;4.75;;;16.90;94.10;;;;;;4944435;29;20035;-62
2022/09/18 05:52:31;;;;;;;6.72;4.10;;;16.90;94.10;;;;;;4939755;29;20058;-62
2022/09/18 05:54:57;;;;;;;7.00;4.78;;;16.90;94.10;;;;;;4930635;29;20040;-62
2022/09/18 05:57:23;;;;;;;8.13;5.20;;;17.00;94.10;;;;;;4928780;29;20028;-62
2022/09/18 05:59:48;;;;;;;7.68;4.40;;;17.00;94.10;;;;;;4938711;29;20036;-63
2022/09/18 06:02:14;;;;;;;8.00;5.07;;;17.10;94.00;;;;;;4933968;29;20027;-63
2022/09/18 06:04:40;;;;;;;7.90;5.03;;;17.10;93.90;;;;;;4944606;29;20036;-63
2022/09/18 06:07:05;;;;;;;8.48;5.15;;;17.10;93.70;;;;;;4940121;29;20035;-62
2022/09/18 06:09:31;;;;;;;8.95;5.05;;;17.20;93.60;;;;;;4944398;29;20073;-62
2022/09/18 06:11:57;;;;;;;8.98;5.10;;;17.20;93.60;;;;;;4941605;29;20060;-62
2022/09/18 06:14:23;;;;;;;9.93;5.60;;;17.20;93.50;;;;;;4929156;29;20024;-62
2022/09/18 06:16:49;;;;;;;8.60;5.15;;;17.20;93.60;;;;;;4925789;29;20032;-64
2022/09/18 06:19:14;;;;;;;5.90;4.10;;;17.20;93.60;;;;;;4935294;29;20066;-63
2022/09/18 06:21:40;;;;;;;8.18;5.57;;;17.30;93.60;;;;;;4929205;29;20028;-62
2022/09/18 06:24:07;;;;;;;9.50;5.63;;;17.30;93.50;;;;;;4934460;29;20028;-62
2022/09/18 06:26:34;;;;;;;11.68;5.68;;;17.30;93.10;;;;;;4917063;29;20020;-62
2022/09/18 06:28:59;;;;;;;8.13;5.05;;;17.30;92.90;;;;;;4934731;29;20470;-62
2022/09/18 06:31:25;;;;;;;7.78;5.05;;;17.30;93.10;;;;;;4938362;29;20028;-62
2022/09/18 06:33:50;;;;;;;7.93;5.18;;;17.30;93.20;;;;;;4916400;29;20064;-62
2022/09/18 06:36:17;;;;;;;8.00;5.30;;;17.30;93.20;;;;;;4935428;29;20159;-62
2022/09/18 06:38:42;;;;;;;7.03;5.03;;;17.40;93.10;;;;;;4934422;29;20611;-62
2022/09/18 06:41:08;;;;;;;6.60;5.13;;;17.40;92.90;;;;;;4928023;29;21074;-62
2022/09/18 06:43:35;;;;;;;6.30;4.22;;;17.40;93.00;;;;;;4944499;29;20131;-62
2022/09/18 06:46:01;;;;;;;7.25;4.97;;;17.50;93.10;;;;;;4942004;29;20032;-63
2022/09/18 06:48:30;;;;;;;7.60;5.50;;;17.50;93.20;;;;;;4933426;29;20028;-62
2022/09/18 06:50:57;;;;;;;7.63;5.43;;;17.50;92.80;;;;;;4930223;29;20032;-62
2022/09/18 06:53:24;;;;;;;6.63;4.70;;;17.50;92.60;;;;;;4932853;29;20044;-62
2022/09/18 06:55:50;;;;;;;7.00;5.25;;;17.50;92.70;;;;;;4927640;29;20591;-62
2022/09/18 06:58:17;;;;;;;6.18;4.38;;;17.50;92.90;;;;;;4934384;29;20120;-62
2022/09/18 07:00:43;;;;;;;7.55;5.43;;;17.60;93.40;;;;;;4939065;29;20020;-62
2022/09/18 07:03:09;;;;;;;7.35;4.90;;;17.60;92.90;;;;;;4921537;29;20108;-62
2022/09/18 07:05:40;;;;;;;7.63;5.28;;;17.60;92.90;;;;;;4928948;29;20054;-62
2022/09/18 07:08:06;;;;;;;6.72;5.15;;;17.70;93.10;;;;;;4936213;29;20028;-62
2022/09/18 07:10:32;;;;;;;8.38;5.45;;;17.70;93.20;;;;;;4918290;29;20044;-62
2022/09/18 07:12:58;;;;;;;7.32;4.95;;;17.70;93.20;;;;;;4917735;29;20060;-62
2022/09/18 07:15:25;;;;;;;6.75;5.53;;;17.80;93.10;;;;;;4926953;29;20081;-62
2022/09/18 07:17:54;;;;;;;6.05;4.88;;;17.80;92.90;;;;;;4928066;29;20527;-62
2022/09/18 07:20:19;;;;;;;6.22;4.72;;;17.90;92.90;;;;;;4919008;29;20385;-62
2022/09/18 07:22:52;;;;;;;6.97;5.05;;;17.90;92.90;;;;;;4927744;29;20040;-62
2022/09/18 07:25:18;;;;;;;6.47;4.97;;;17.90;92.80;;;;;;4923842;29;20040;-62
2022/09/18 07:27:44;;;;;;;7.43;5.05;;;18.00;92.60;;;;;;4920691;29;20036;-62
2022/09/18 07:30:10;;;;;;;7.88;4.95;;;18.00;92.50;;;;;;4926937;29;20039;-62
2022/09/18 07:32:36;;;;;;;6.93;4.57;;;18.00;92.40;;;;;;4926929;29;20357;-62
2022/09/18 07:35:01;;;;;;;6.97;4.80;;;18.00;92.50;;;;;;4928003;29;20083;-62
2022/09/18 07:37:27;;;;;;;5.88;4.63;;;18.00;92.70;;;;;;4933932;29;20051;-62
2022/09/18 07:39:53;;;;;;;6.25;4.50;;;18.00;93.20;;;;;;4932835;29;20023;-61
2022/09/18 07:42:19;;;;;;;6.85;4.65;;;18.10;93.20;;;;;;4928930;29;20032;-62
2022/09/18 07:44:44;;;;;;;6.25;4.50;;;18.10;92.90;;;;;;4944952;29;20026;-61
2022/09/18 07:47:10;;;;;;;6.60;4.90;;;18.20;92.90;;;;;;4927957;29;20068;-62
2022/09/18 07:49:37;;;;;;;6.03;4.60;;;18.20;92.90;;;;;;4934712;29;20020;-62
2022/09/18 07:52:03;;;;;;;5.32;4.15;;;18.20;92.80;;;;;;4938243;29;20027;-62
2022/09/18 07:54:30;;;;;;;4.63;3.85;;;18.20;92.70;;;;;;4926113;29;20056;-61
2022/09/18 07:56:55;;;;;;;5.60;4.32;;;18.20;92.70;;;;;;4938834;29;20032;-61
2022/09/18 07:59:21;;;;;;;5.65;4.32;;;18.30;92.90;;;;;;4925959;29;20070;-61
2022/09/18 08:01:47;;;;;;;6.07;4.10;;;18.30;93.10;;;;;;4946000;29;20110;-61
2022/09/18 08:04:13;;;;;;;4.78;3.80;;;18.30;93.50;;;;;;4936121;29;20028;-61
2022/09/18 08:06:39;;;;;;;5.60;4.18;;;18.40;93.60;;;;;;4945540;29;20036;-61
2022/09/18 08:09:05;;;;;;;5.75;3.92;;;18.50;93.60;;;;;;4940901;29;20028;-61
2022/09/18 08:11:30;;;;;;;5.32;3.70;;;18.50;93.10;;;;;;4921771;29;20043;-61
2022/09/18 08:13:56;;;;;;;5.47;3.92;;;18.60;92.90;;;;;;4937015;29;20062;-60
2022/09/18 08:16:22;;;;;;;5.47;3.95;;;18.60;92.80;;;;;;4938452;29;20032;-61
2022/09/18 08:18:48;;;;;;;4.53;3.63;;;18.60;93.10;;;;;;4941419;29;20050;-61
2022/09/18 08:21:13;;;;;;;5.22;3.70;;;18.70;93.10;;;;;;4930163;29;20035;-61
2022/09/18 08:23:39;;;;;;;4.15;3.05;;;18.70;93.20;;;;;;4912144;29;20039;-61
2022/09/18 08:26:05;;;;;;;4.57;3.65;;;18.80;93.30;;;;;;4926488;29;20062;-63
2022/09/18 08:28:30;;;;;;;4.53;3.67;;;18.80;93.50;;;;;;4916016;29;20034;-61
2022/09/18 08:30:56;;;;;;;4.70;3.90;;;18.90;93.50;;;;;;4905685;29;20421;-61
2022/09/18 08:33:23;;;;;;;4.57;3.65;;;19.00;93.50;;;;;;4915485;29;20102;-61
2022/09/18 08:35:49;;;;;;;5.35;3.83;;;19.10;93.20;;;;;;4924147;29;20047;-62
2022/09/18 08:38:15;;;;;;;4.72;3.92;;;19.10;93.20;;;;;;4928748;29;20122;-61
2022/09/18 08:41:07;;;;;;;4.30;3.55;;;19.10;93.20;;;;;;4932508;29;20025;-61
2022/09/18 08:43:45;;;;;;;4.45;3.53;;;19.20;93.10;;;;;;4924773;29;20024;-61
2022/09/18 08:46:16;;;;;;;4.47;3.47;;;19.30;93.10;;;;;;4933652;29;20028;-62
2022/09/18 08:49:08;;;;;;;8.13;4.72;;;19.30;93.40;;;;;;4938569;29;20024;-62
2022/09/18 08:51:59;;;;;;;5.75;4.75;;;19.30;93.20;;;;;;4907600;29;20040;-62
2022/09/18 08:54:33;;;;;;;7.18;4.32;;;19.40;93.40;;;;;;4935423;29;20044;-61
2022/09/18 08:57:04;;;;;;;6.97;5.10;;;19.40;93.60;;;;;;4922067;29;20042;-62
2022/09/18 08:59:40;;;;;;;7.03;4.78;;;19.50;93.90;;;;;;4936190;29;20086;-62
2022/09/18 09:02:20;;;;;;;6.97;4.80;;;19.60;94.10;;;;;;4934723;29;20084;-62
2022/09/18 09:04:46;;;;;;;7.10;4.65;;;19.70;94.20;;;;;;4936392;29;20038;-62
2022/09/18 09:07:50;;;;;;;5.43;4.53;;;19.70;94.00;;;;;;4926827;29;20028;-62
2022/09/18 09:10:38;;;;;;;5.85;4.75;;;19.80;93.60;;;;;;4937573;29;20029;-62
2022/09/18 09:13:10;;;;;;;6.40;4.70;;;19.90;93.30;;;;;;4874398;29;20420;-62
2022/09/18 09:15:47;;;;;;;6.03;4.75;;;19.90;93.40;;;;;;4935947;29;20024;-61
2022/09/18 09:18:16;;;;;;;4.72;3.85;;;19.90;93.20;;;;;;4937170;29;20062;-62
2022/09/18 09:20:53;;;;;;;4.15;3.03;;;19.90;93.30;;;;;;4942621;29;20023;-62
2022/09/18 09:23:41;;;;;;;4.72;3.90;;;20.00;93.40;;;;;;4931326;29;20024;-62
2022/09/18 09:26:17;;;;;;;5.03;4.25;;;20.00;93.40;;;;;;4926526;29;20024;-61
2022/09/18 09:28:50;;;;;;;5.35;4.32;;;20.10;93.30;;;;;;4918766;29;20074;-63
2022/09/18 09:31:18;;;;;;;5.10;4.13;;;20.10;93.40;;;;;;4927593;29;20024;-62
2022/09/18 09:33:56;;;;;;;4.93;3.90;;;20.10;92.90;;;;;;4934056;29;20064;-62
2022/09/18 09:36:26;;;;;;;4.15;3.45;;;20.10;92.80;;;;;;4935246;29;20079;-61
2022/09/18 09:39:10;;;;;;;4.15;3.42;;;20.10;92.90;;;;;;4922695;29;20032;-62
2022/09/18 09:41:51;;;;;;;5.63;3.88;;;20.10;92.90;;;;;;4922858;29;20020;-62
2022/09/18 09:44:50;;;;;;;4.35;3.50;;;20.10;92.80;;;;;;4922651;29;20042;-62
2022/09/18 09:47:42;;;;;;;4.90;3.65;;;20.10;92.80;;;;;;4919142;29;20028;-61
2022/09/18 09:50:08;;;;;;;4.50;3.85;;;20.10;92.80;;;;;;4913680;29;20024;-63
2022/09/18 09:52:37;;;;;;;5.88;4.18;;;20.10;92.80;;;;;;4922081;29;20125;-62
2022/09/18 09:55:06;;;;;;;3.30;3.00;;;20.10;92.80;;;;;;4919481;29;20104;-62
2022/09/18 09:58:01;;;;;;;4.63;3.92;;;20.10;92.90;;;;;;4918884;29;20032;-62
2022/09/18 10:00:29;;;;;;;4.32;3.80;;;20.00;92.90;;;;;;4936162;29;20005;-63
2022/09/18 10:03:23;;;;;;;5.22;3.70;;;20.00;93.10;;;;;;4937417;29;20028;-64
2022/09/18 10:06:10;;;;;;;4.20;3.58;;;20.00;93.10;;;;;;4941003;29;20051;-63
2022/09/18 10:08:39;;;;;;;5.60;4.30;;;20.00;93.20;;;;;;4932570;29;20012;-64
2022/09/18 10:11:10;;;;;;;5.95;4.93;;;20.00;93.60;;;;;;4943041;29;20036;-63
2022/09/18 10:13:53;;;;;;;5.97;4.50;;;20.00;93.50;;;;;;4944324;29;20052;-63
2022/09/18 10:16:23;;;;;;;6.80;4.85;;;20.00;93.20;;;;;;4942200;29;20054;-63
2022/09/18 10:18:49;;;;;;;5.82;4.93;;;20.00;93.00;;;;;;4933309;29;20040;-64
2022/09/18 10:21:19;;;;;;;5.45;4.70;;;20.00;92.90;;;;;;4950389;29;20068;-64
2022/09/18 10:24:14;;;;;;;6.10;5.18;;;19.90;93.00;;;;;;4944765;28;20032;-64
2022/09/18 10:26:57;;;;;;;7.53;5.85;;;19.90;93.20;;;;;;4902569;29;20079;-63
2022/09/18 10:29:23;;;;;;;5.95;4.97;;;19.90;93.70;;;;;;4945945;29;20020;-63
2022/09/18 10:31:51;;;;;;;6.88;5.18;;;19.90;94.00;;;;;;4935265;29;20016;-63
2022/09/18 10:34:29;;;;;;;6.85;5.50;;;20.00;94.00;;;;;;4941907;29;20027;-64
2022/09/18 10:36:54;;;;;;;7.18;5.47;;;20.00;93.80;;;;;;4929256;29;20040;-63
2022/09/18 10:39:30;;;;;;;9.10;6.65;;;20.00;94.10;;;;;;4937640;29;20057;-63
2022/09/18 10:42:01;;;;;;;7.38;5.80;;;20.00;93.80;;;;;;4942006;29;20040;-64
2022/09/18 10:44:52;;;;;;;9.73;6.85;;;20.00;93.90;;;;;;4940812;29;20036;-64
2022/09/18 10:47:35;;;;;;;11.38;7.80;;;20.00;94.00;;;;;;4922895;23;20218;-89
2022/09/18 10:50:10;;;;;;;11.43;7.30;;;20.00;94.50;;;;;;4916037;29;20542;-87
2022/09/18 10:52:36;;;;;;;8.45;5.88;;;20.10;95.20;;;;;;4913917;29;20025;-87
2022/09/18 10:55:06;;;;;;;6.82;5.20;;;20.20;96.00;;;;;;4913325;29;20035;-87
2022/09/18 10:57:39;;;;;;;5.80;4.78;;;20.30;96.30;;;;;;4910313;29;20015;-87
2022/09/18 11:00:26;;;;;;;5.82;4.20;;;20.40;96.20;;;;;;4908334;29;20039;-90
2022/09/18 11:03:00;;;;;;;4.47;3.70;;;20.50;95.50;;;;;;4912840;29;20046;-89
2022/09/18 11:05:33;;;;;;;3.70;3.30;;;20.60;95.50;;;;;;4918006;29;21060;-89
2022/09/18 11:08:03;;;;;;;3.85;3.30;;;20.80;95.20;;;;;;4915764;29;20118;-90
2022/09/18 11:10:35;;;;;;;4.03;3.13;;;20.80;95.10;;;;;;4913375;29;20104;-90
2022/09/18 11:13:02;;;;;;;4.65;3.60;;;20.80;94.60;;;;;;4915088;29;20059;-90
2022/09/18 11:15:34;;;;;;;4.18;3.35;;;20.90;94.40;;;;;;4914429;29;20080;-89
2022/09/18 11:18:04;;;;;;;3.33;3.03;;;20.90;94.30;;;;;;4916966;29;20048;-90
2022/09/18 11:20:40;;;;;;;5.10;3.75;;;20.90;94.30;;;;;;4917739;29;20028;-90
2022/09/18 11:23:18;;;;;;;4.10;3.60;;;21.00;94.30;;;;;;4914726;29;20020;-90
2022/09/18 11:25:45;;;;;;;4.25;3.65;;;21.00;94.10;;;;;;4907745;29;20036;-88
2022/09/18 11:28:27;;;;;;;5.60;4.20;;;21.10;94.10;;;;;;4914671;29;20107;-90
2022/09/18 11:31:01;;;;;;;5.15;3.92;;;21.20;93.90;;;;;;4912010;29;20037;-89
2022/09/18 11:33:36;;;;;;;4.80;4.30;;;21.20;94.00;;;;;;4915835;29;20052;-90
2022/09/18 11:36:08;;;;;;;4.82;4.03;;;21.30;93.80;;;;;;4933321;29;20021;-90
2022/09/18 11:38:45;;;;;;;5.50;4.30;;;21.30;93.60;;;;;;4913758;29;20024;-90
2022/09/18 11:41:12;;;;;;;5.70;4.60;;;21.40;93.40;;;;;;4934706;29;20020;-90
2022/09/18 11:43:40;;;;;;;4.32;3.78;;;21.50;93.20;;;;;;4911407;29;20095;-90
2022/09/18 11:46:27;;;;;;;4.57;3.80;;;21.50;93.00;;;;;;4908979;29;20032;-88
2022/09/18 11:49:14;;;;;;;5.00;3.67;;;21.60;92.80;;;;;;4931156;29;20084;-88
2022/09/18 11:51:56;;;;;;;5.60;4.25;;;21.60;92.50;;;;;;4925221;29;20035;-88
2022/09/18 11:54:47;;;;;;;4.45;3.88;;;21.60;92.20;;;;;;4934217;29;20028;-88
2022/09/18 11:57:21;;;;;;;5.40;4.05;;;21.60;92.10;;;;;;4923834;29;20052;-88
2022/09/18 12:00:20;;;;;;;5.57;3.88;;;21.60;92.10;;;;;;4925465;29;20284;-90
2022/09/18 12:03:24;;;;;;;6.25;4.72;;;21.70;91.90;;;;;;4936759;29;20036;-90
2022/09/18 12:06:19;;;;;;;5.22;4.32;;;21.80;91.70;;;;;;4926957;29;20049;-90
2022/09/18 12:08:57;;;;;;;5.10;3.95;;;21.80;91.90;;;;;;4932500;29;20060;-88
2022/09/18 12:11:29;;;;;;;4.15;3.63;;;21.80;91.60;;;;;;4934572;29;20040;-88
2022/09/18 12:14:16;;;;;;;5.57;4.45;;;21.80;91.50;;;;;;4934042;29;20385;-88
2022/09/18 12:16:49;;;;;;;5.05;4.13;;;21.90;91.50;;;;;;4947264;29;20015;-89
2022/09/18 12:19:14;;;;;;;4.60;3.70;;;21.90;91.10;;;;;;4928359;29;20024;-89
2022/09/18 12:21:56;;;;;;;4.00;3.45;;;21.80;90.90;;;;;;4929510;23;20056;-92
2022/09/18 12:24:35;;;;;;;4.43;3.58;;;21.80;90.90;;;;;;4909186;29;20028;-89
2022/09/18 12:27:24;;;;;;;6.93;3.45;;;21.80;90.80;;;;;;4978309;23;20047;-89
2022/09/18 12:30:08;;;;;;;4.40;3.40;;;21.70;90.70;;;;;;4943532;29;20042;-85
2022/09/18 12:32:33;;;;;;;3.83;3.42;;;21.70;90.50;;;;;;4943492;28;20023;-85
2022/09/18 12:35:44;;;;;;;4.07;3.20;;;21.60;90.40;;;;;;4942435;29;20042;-87
2022/09/18 12:38:39;;;;;;;3.97;3.58;;;21.60;90.30;;;;;;4934214;29;20035;-87
2022/09/18 12:41:12;;;;;;;4.55;3.72;;;21.60;90.30;;;;;;4937413;28;20461;-85
2022/09/18 12:43:55;;;;;;;4.32;3.65;;;21.50;90.10;;;;;;4940243;29;20062;-85
2022/09/18 12:46:43;;;;;;;4.57;3.42;;;21.50;90.10;;;;;;4933329;29;20541;-85
2022/09/18 12:49:46;;;;;;;4.90;3.50;;;21.50;90.00;;;;;;4941901;28;20027;-85
2022/09/18 12:52:27;;;;;;;3.70;3.00;;;21.50;89.80;;;;;;4933261;28;20042;-86
2022/09/18 12:55:02;;;;;;;;;;;21.40;89.50;;;;;;4940214;29;20410;-85
2022/09/18 12:58:04;;;;;;;3.15;2.80;;;21.40;88.90;;;;;;4935613;29;19911;-84
2022/09/18 13:00:29;;;;;;;3.20;2.80;;;21.40;89.30;;;;;;4929989;29;20039;-85
2022/09/18 13:03:18;;;;;;;3.03;2.72;;;21.40;89.20;;;;;;4941272;29;20111;-85
2022/09/18 13:05:53;;;;;;;2.58;2.35;;;21.40;88.60;;;;;;4958692;28;20083;-88
2022/09/18 13:08:21;;;;;;;2.60;2.40;;;21.40;88.20;;;;;;4938687;28;20086;-87
2022/09/18 13:10:49;;;;;;;2.65;2.45;;;21.40;87.10;;;;;;4937743;29;20031;-87
2022/09/18 13:13:43;;;;;;;2.47;2.20;;;21.40;86.60;;;;;;4930160;28;20015;-87